sensor_id;sensor_type;location;lat;lon;timestamp;pressure;altitude;pressure_sealevel;temperature;humidity
71948;BME280;63257;55.082;38.772;2023-10-19T00:01:22;98961.59;;;5.38;87.95
71948;BME280;63257;55.082;38.772;2023-10-19T00:03:52;98957.81;;;5.43;88.77
71948;BME280;63257;55.082;38.772;2023-10-19T00:06:22;98962.22;;;5.43;88.79
71948;BME280;63257;55.082;38.772;2023-10-19T00:08:49;98958.72;;;5.42;88.71
71948;BME280;63257;55.082;38.772;2023-10-19T00:11:18;98948.50;;;5.38;88.17
71948;BME280;63257;55.082;38.772;2023-10-19T00:13:48;98954.56;;;5.38;88.51
71948;BME280;63257;55.082;38.772;2023-10-19T00:16:19;98967.53;;;5.59;88.46
71948;BME280;63257;55.082;38.772;2023-10-19T00:19:01;98961.72;;;5.54;88.51
71948;BME280;63257;55.082;38.772;2023-10-19T00:21:29;98953.31;;;5.47;88.87
71948;BME280;63257;55.082;38.772;2023-10-19T00:23:56;98960.84;;;5.53;89.06
71948;BME280;63257;55.082;38.772;2023-10-19T00:26:24;98961.81;;;5.51;89.02
71948;BME280;63257;55.082;38.772;2023-10-19T00:29:00;98958.94;;;5.57;89.38
71948;BME280;63257;55.082;38.772;2023-10-19T00:31:40;98954.41;;;5.60;88.96
71948;BME280;63257;55.082;38.772;2023-10-19T00:34:07;98954.41;;;5.60;89.09
71948;BME280;63257;55.082;38.772;2023-10-19T00:36:33;98933.19;;;5.48;89.49
71948;BME280;63257;55.082;38.772;2023-10-19T00:39:00;98953.63;;;5.58;89.89
71948;BME280;63257;55.082;38.772;2023-10-19T00:41:39;98943.16;;;5.58;89.34
71948;BME280;63257;55.082;38.772;2023-10-19T00:44:06;98942.38;;;5.56;89.91
71948;BME280;63257;55.082;38.772;2023-10-19T00:46:41;98936.13;;;5.41;89.95
71948;BME280;63257;55.082;38.772;2023-10-19T00:49:07;98961.72;;;5.54;89.12
71948;BME280;63257;55.082;38.772;2023-10-19T00:51:46;98945.53;;;5.46;90.40
71948;BME280;63257;55.082;38.772;2023-10-19T00:54:24;98953.06;;;5.52;91.04
71948;BME280;63257;55.082;38.772;2023-10-19T00:57:06;98953.84;;;5.54;91.08
71948;BME280;63257;55.082;38.772;2023-10-19T00:59:41;98957.31;;;5.54;90.40
71948;BME280;63257;55.082;38.772;2023-10-19T01:02:14;98963.34;;;5.56;90.12
71948;BME280;63257;55.082;38.772;2023-10-19T01:04:47;98931.81;;;5.40;90.51
71948;BME280;63257;55.082;38.772;2023-10-19T01:07:22;98950.44;;;5.52;90.67
71948;BME280;63257;55.082;38.772;2023-10-19T01:09:52;98942.38;;;5.56;91.03
71948;BME280;63257;55.082;38.772;2023-10-19T01:12:19;98946.59;;;5.59;91.08
71948;BME280;63257;55.082;38.772;2023-10-19T01:17:59;98931.22;;;5.53;90.95
71948;BME280;63257;55.082;38.772;2023-10-19T01:20:29;98947.47;;;5.59;90.56
71948;BME280;63257;55.082;38.772;2023-10-19T01:25:31;98944.31;;;5.70;90.25
71948;BME280;63257;55.082;38.772;2023-10-19T01:28:07;98949.16;;;5.78;89.72
71948;BME280;63257;55.082;38.772;2023-10-19T01:30:36;98954.31;;;5.80;90.21
71948;BME280;63257;55.082;38.772;2023-10-19T01:33:03;98951.09;;;5.74;90.70
71948;BME280;63257;55.082;38.772;2023-10-19T01:35:30;98925.91;;;5.72;89.72
71948;BME280;63257;55.082;38.772;2023-10-19T01:38:16;98940.03;;;5.87;89.54
71948;BME280;63257;55.082;38.772;2023-10-19T01:40:42;98947.56;;;5.93;89.17
71948;BME280;63257;55.082;38.772;2023-10-19T01:43:12;98949.34;;;5.92;89.95
71948;BME280;63257;55.082;38.772;2023-10-19T01:45:47;98954.28;;;5.99;88.65
71948;BME280;63257;55.082;38.772;2023-10-19T01:48:14;98954.16;;;6.02;88.74
71948;BME280;63257;55.082;38.772;2023-10-19T01:50:41;98930.38;;;5.87;89.21
71948;BME280;63257;55.082;38.772;2023-10-19T01:53:07;98944.19;;;5.91;89.34
71948;BME280;63257;55.082;38.772;2023-10-19T01:55:44;98948.47;;;5.92;90.26
71948;BME280;63257;55.082;38.772;2023-10-19T01:58:12;98931.38;;;5.85;90.37
71948;BME280;63257;55.082;38.772;2023-10-19T02:00:40;98933.78;;;5.89;89.98
71948;BME280;63257;55.082;38.772;2023-10-19T02:03:09;98928.56;;;5.89;90.22
71948;BME280;63257;55.082;38.772;2023-10-19T02:05:35;98947.06;;;6.04;89.84
71948;BME280;63257;55.082;38.772;2023-10-19T02:08:07;98944.34;;;6.05;89.42
71948;BME280;63257;55.082;38.772;2023-10-19T02:10:36;98925.59;;;5.95;89.71
71948;BME280;63257;55.082;38.772;2023-10-19T02:13:03;98937.38;;;6.06;89.25
71948;BME280;63257;55.082;38.772;2023-10-19T02:15:34;98925.34;;;6.02;89.57
71948;BME280;63257;55.082;38.772;2023-10-19T02:18:02;98923.66;;;6.01;89.05
71948;BME280;63257;55.082;38.772;2023-10-19T02:20:28;98931.53;;;6.17;88.83
71948;BME280;63257;55.082;38.772;2023-10-19T02:22:55;98928.94;;;6.17;88.36
71948;BME280;63257;55.082;38.772;2023-10-19T02:25:24;98934.03;;;6.20;88.88
71948;BME280;63257;55.082;38.772;2023-10-19T02:28:02;98934.78;;;6.22;88.45
71948;BME280;63257;55.082;38.772;2023-10-19T02:30:28;98920.41;;;6.13;88.17
71948;BME280;63257;55.082;38.772;2023-10-19T02:32:56;98934.16;;;6.17;88.71
71948;BME280;63257;55.082;38.772;2023-10-19T02:35:22;98924.78;;;6.13;89.05
71948;BME280;63257;55.082;38.772;2023-10-19T02:37:48;98930.88;;;6.13;88.88
71948;BME280;63257;55.082;38.772;2023-10-19T02:40:14;98920.69;;;6.07;89.09
71948;BME280;63257;55.082;38.772;2023-10-19T02:42:49;98933.41;;;6.15;89.54
71948;BME280;63257;55.082;38.772;2023-10-19T02:45:19;98926.47;;;6.14;89.53
71948;BME280;63257;55.082;38.772;2023-10-19T02:47:46;98930.63;;;6.18;89.15
71948;BME280;63257;55.082;38.772;2023-10-19T02:50:12;98911.44;;;6.17;88.47
71948;BME280;63257;55.082;38.772;2023-10-19T02:52:42;98930.25;;;6.25;89.08
71948;BME280;63257;55.082;38.772;2023-10-19T02:55:11;98920.94;;;6.20;89.36
71948;BME280;63257;55.082;38.772;2023-10-19T02:57:37;98912.47;;;6.15;88.78
71948;BME280;63257;55.082;38.772;2023-10-19T03:00:06;98905.13;;;6.04;88.77
71948;BME280;63257;55.082;38.772;2023-10-19T03:02:40;98910.53;;;6.01;89.19
71948;BME280;63257;55.082;38.772;2023-10-19T03:05:07;98902.84;;;5.98;89.78
71948;BME280;63257;55.082;38.772;2023-10-19T03:07:39;98906.44;;;5.95;89.05
71948;BME280;63257;55.082;38.772;2023-10-19T03:10:06;98907.53;;;5.91;89.52
71948;BME280;63257;55.082;38.772;2023-10-19T03:12:32;98903.44;;;5.85;89.90
71948;BME280;63257;55.082;38.772;2023-10-19T03:14:58;98921.44;;;5.91;90.15
71948;BME280;63257;55.082;38.772;2023-10-19T03:17:26;98924.91;;;5.92;90.13
71948;BME280;63257;55.082;38.772;2023-10-19T03:19:54;98918.06;;;5.89;90.16
71948;BME280;63257;55.082;38.772;2023-10-19T03:22:21;98910.06;;;5.92;89.68
71948;BME280;63257;55.082;38.772;2023-10-19T03:24:47;98904.28;;;5.86;89.24
71948;BME280;63257;55.082;38.772;2023-10-19T03:27:14;98921.00;;;5.83;89.95
71948;BME280;63257;55.082;38.772;2023-10-19T03:29:45;98924.97;;;5.90;90.80
71948;BME280;63257;55.082;38.772;2023-10-19T03:32:20;98924.56;;;6.00;90.48
71948;BME280;63257;55.082;38.772;2023-10-19T03:34:56;98915.94;;;5.98;90.20
71948;BME280;63257;55.082;38.772;2023-10-19T03:37:23;98917.31;;;6.05;89.54
71948;BME280;63257;55.082;38.772;2023-10-19T03:39:51;98922.66;;;6.03;89.61
71948;BME280;63257;55.082;38.772;2023-10-19T03:42:18;98888.56;;;5.86;89.74
71948;BME280;63257;55.082;38.772;2023-10-19T03:44:46;98919.78;;;6.08;89.95
71948;BME280;63257;55.082;38.772;2023-10-19T03:47:16;98912.75;;;6.08;90.01
71948;BME280;63257;55.082;38.772;2023-10-19T03:49:47;98917.31;;;6.05;89.77
71948;BME280;63257;55.082;38.772;2023-10-19T03:52:14;98924.19;;;6.07;89.76
71948;BME280;63257;55.082;38.772;2023-10-19T03:54:41;98922.41;;;6.08;89.38
71948;BME280;63257;55.082;38.772;2023-10-19T03:57:10;98913.34;;;5.96;89.76
71948;BME280;63257;55.082;38.772;2023-10-19T03:59:40;98918.41;;;6.01;90.29
71948;BME280;63257;55.082;38.772;2023-10-19T04:02:09;98919.78;;;6.08;90.02
71948;BME280;63257;55.082;38.772;2023-10-19T04:04:36;98904.31;;;6.03;89.21
71948;BME280;63257;55.082;38.772;2023-10-19T04:07:04;98922.09;;;6.14;89.68
71948;BME280;63257;55.082;38.772;2023-10-19T04:09:37;98914.06;;;6.17;89.72
71948;BME280;63257;55.082;38.772;2023-10-19T04:12:23;98910.75;;;6.14;88.73
71948;BME280;63257;55.082;38.772;2023-10-19T04:14:49;98917.38;;;6.21;89.71
71948;BME280;63257;55.082;38.772;2023-10-19T04:17:15;98917.38;;;6.21;89.29
71948;BME280;63257;55.082;38.772;2023-10-19T04:19:42;98922.47;;;6.24;89.62
71948;BME280;63257;55.082;38.772;2023-10-19T04:22:09;98917.06;;;6.27;88.82
71948;BME280;63257;55.082;38.772;2023-10-19T04:24:47;98930.16;;;6.27;89.27
71948;BME280;63257;55.082;38.772;2023-10-19T04:27:13;98923.31;;;6.24;89.17
71948;BME280;63257;55.082;38.772;2023-10-19T04:29:39;98936.16;;;6.29;89.92
71948;BME280;63257;55.082;38.772;2023-10-19T04:32:06;98915.44;;;6.24;89.81
71948;BME280;63257;55.082;38.772;2023-10-19T04:34:32;98933.75;;;6.42;89.37
71948;BME280;63257;55.082;38.772;2023-10-19T04:36:58;98925.19;;;6.38;89.34
71948;BME280;63257;55.082;38.772;2023-10-19T04:39:24;98926.56;;;6.45;88.79
71948;BME280;63257;55.082;38.772;2023-10-19T04:41:49;98930.13;;;6.44;88.78
71948;BME280;63257;55.082;38.772;2023-10-19T04:44:15;98924.91;;;6.44;88.42
71948;BME280;63257;55.082;38.772;2023-10-19T04:46:42;98934.59;;;6.42;88.85
71948;BME280;63257;55.082;38.772;2023-10-19T04:49:08;98920.66;;;6.42;90.13
71948;BME280;63257;55.082;38.772;2023-10-19T04:51:34;98920.66;;;6.42;89.93
71948;BME280;63257;55.082;38.772;2023-10-19T04:54:05;98908.81;;;6.35;89.23
71948;BME280;63257;55.082;38.772;2023-10-19T04:56:34;98909.13;;;6.28;89.36
71948;BME280;63257;55.082;38.772;2023-10-19T04:59:02;98914.88;;;6.35;89.56
71948;BME280;63257;55.082;38.772;2023-10-19T05:01:28;98913.59;;;6.26;89.41
71948;BME280;63257;55.082;38.772;2023-10-19T05:03:54;98914.91;;;6.18;89.21
71948;BME280;63257;55.082;38.772;2023-10-19T05:06:20;98931.41;;;6.20;88.51
71948;BME280;63257;55.082;38.772;2023-10-19T05:08:48;98917.63;;;6.16;89.29
71948;BME280;63257;55.082;38.772;2023-10-19T05:11:13;98918.31;;;6.20;89.36
71948;BME280;63257;55.082;38.772;2023-10-19T05:13:39;98930.25;;;6.25;89.07
71948;BME280;63257;55.082;38.772;2023-10-19T05:16:05;98923.47;;;6.21;89.02
71948;BME280;63257;55.082;38.772;2023-10-19T05:18:31;98920.50;;;6.27;89.00
71948;BME280;63257;55.082;38.772;2023-10-19T05:20:57;98934.84;;;6.38;88.87
71948;BME280;63257;55.082;38.772;2023-10-19T05:23:24;98934.50;;;6.44;88.93
71948;BME280;63257;55.082;38.772;2023-10-19T05:25:51;98938.66;;;6.48;88.82
71948;BME280;63257;55.082;38.772;2023-10-19T05:28:19;98919.56;;;6.46;88.94
71948;BME280;63257;55.082;38.772;2023-10-19T05:30:47;98936.34;;;6.59;88.46
71948;BME280;63257;55.082;38.772;2023-10-19T05:33:14;98941.50;;;6.61;87.88
71948;BME280;63257;55.082;38.772;2023-10-19T05:35:40;98946.88;;;6.58;88.15
71948;BME280;63257;55.082;38.772;2023-10-19T05:38:07;98949.91;;;6.68;87.82
71948;BME280;63257;55.082;38.772;2023-10-19T05:40:33;98941.41;;;6.62;87.33
71948;BME280;63257;55.082;38.772;2023-10-19T05:42:59;98937.72;;;6.67;87.21
71948;BME280;63257;55.082;38.772;2023-10-19T05:45:27;98944.22;;;6.75;87.20
71948;BME280;63257;55.082;38.772;2023-10-19T05:47:57;98944.75;;;6.82;86.49
71948;BME280;63257;55.082;38.772;2023-10-19T05:50:23;98950.78;;;6.84;86.50
71948;BME280;63257;55.082;38.772;2023-10-19T05:52:49;98925.13;;;6.73;86.71
71948;BME280;63257;55.082;38.772;2023-10-19T05:55:17;98943.34;;;6.92;86.11
71948;BME280;63257;55.082;38.772;2023-10-19T05:57:46;98935.59;;;6.89;85.69
71948;BME280;63257;55.082;38.772;2023-10-19T06:00:12;98945.88;;;6.94;86.00
71948;BME280;63257;55.082;38.772;2023-10-19T06:02:43;98954.66;;;6.93;85.67
71948;BME280;63257;55.082;38.772;2023-10-19T06:05:10;98946.38;;;6.85;86.17
71948;BME280;63257;55.082;38.772;2023-10-19T06:07:36;98931.38;;;6.71;86.41
71948;BME280;63257;55.082;38.772;2023-10-19T06:10:03;98949.25;;;6.80;86.82
71948;BME280;63257;55.082;38.772;2023-10-19T06:12:32;98947.47;;;6.81;87.71
71948;BME280;63257;55.082;38.772;2023-10-19T06:14:59;98952.34;;;6.87;86.72
71948;BME280;63257;55.082;38.772;2023-10-19T06:17:26;98950.81;;;6.83;86.80
71948;BME280;63257;55.082;38.772;2023-10-19T06:19:54;98951.88;;;6.80;86.29
71948;BME280;63257;55.082;38.772;2023-10-19T06:22:21;98958.56;;;6.86;86.48
71948;BME280;63257;55.082;38.772;2023-10-19T06:24:46;98929.50;;;6.73;87.24
71948;BME280;63257;55.082;38.772;2023-10-19T06:27:12;98955.94;;;6.86;86.76
71948;BME280;63257;55.082;38.772;2023-10-19T06:29:38;98942.97;;;6.83;86.84
71948;BME280;63257;55.082;38.772;2023-10-19T06:32:04;98949.81;;;6.85;85.92
71948;BME280;63257;55.082;38.772;2023-10-19T06:34:30;98947.19;;;6.85;85.77
71948;BME280;63257;55.082;38.772;2023-10-19T06:36:55;98939.69;;;6.79;86.17
71948;BME280;63257;55.082;38.772;2023-10-19T06:39:21;98947.06;;;6.88;85.43
71948;BME280;63257;55.082;38.772;2023-10-19T06:41:47;98941.13;;;6.85;85.45
71948;BME280;63257;55.082;38.772;2023-10-19T06:44:14;98954.50;;;6.96;86.19
71948;BME280;63257;55.082;38.772;2023-10-19T06:46:42;98950.84;;;6.99;85.86
71948;BME280;63257;55.082;38.772;2023-10-19T06:49:09;98937.91;;;6.95;86.18
71948;BME280;63257;55.082;38.772;2023-10-19T06:51:34;98951.28;;;7.07;86.94
71948;BME280;63257;55.082;38.772;2023-10-19T06:54:02;98941.47;;;7.10;87.02
71948;BME280;63257;55.082;38.772;2023-10-19T06:56:28;98939.94;;;7.22;85.52
71948;BME280;63257;55.082;38.772;2023-10-19T06:58:56;98941.47;;;7.26;83.66
71948;BME280;63257;55.082;38.772;2023-10-19T07:01:22;98952.06;;;7.41;83.38
71948;BME280;63257;55.082;38.772;2023-10-19T07:03:51;98954.06;;;7.52;84.20
71948;BME280;63257;55.082;38.772;2023-10-19T07:06:19;98954.81;;;7.54;84.17
71948;BME280;63257;55.082;38.772;2023-10-19T07:08:45;98936.13;;;7.44;84.02
71948;BME280;63257;55.082;38.772;2023-10-19T07:11:12;98931.03;;;7.41;83.67
71948;BME280;63257;55.082;38.772;2023-10-19T07:13:38;98942.78;;;7.50;83.92
71948;BME280;63257;55.082;38.772;2023-10-19T07:16:05;98952.19;;;7.54;83.64
71948;BME280;63257;55.082;38.772;2023-10-19T07:18:31;98950.44;;;7.54;81.72
71948;BME280;63257;55.082;38.772;2023-10-19T07:20:57;98935.78;;;7.50;83.12
71948;BME280;63257;55.082;38.772;2023-10-19T07:23:29;98942.16;;;7.46;82.64
71948;BME280;63257;55.082;38.772;2023-10-19T07:25:54;98949.16;;;7.45;83.17
71948;BME280;63257;55.082;38.772;2023-10-19T07:28:22;98950.25;;;7.57;83.27
71948;BME280;63257;55.082;38.772;2023-10-19T07:30:52;98952.69;;;7.60;83.27
71948;BME280;63257;55.082;38.772;2023-10-19T07:33:18;98957.75;;;7.63;82.71
71948;BME280;63257;55.082;38.772;2023-10-19T07:35:49;98942.19;;;7.60;82.64
71948;BME280;63257;55.082;38.772;2023-10-19T07:38:23;98958.53;;;7.66;82.97
71948;BME280;63257;55.082;38.772;2023-10-19T07:40:51;98953.72;;;7.58;82.74
71948;BME280;63257;55.082;38.772;2023-10-19T07:43:20;98955.50;;;7.57;83.22
71948;BME280;63257;55.082;38.772;2023-10-19T07:45:46;98952.09;;;7.55;83.49
71948;BME280;63257;55.082;38.772;2023-10-19T07:48:14;98962.88;;;7.67;82.46
71948;BME280;63257;55.082;38.772;2023-10-19T07:50:40;98961.41;;;7.61;81.99
71948;BME280;63257;55.082;38.772;2023-10-19T07:53:06;98949.47;;;7.55;82.60
71948;BME280;63257;55.082;38.772;2023-10-19T07:55:32;98960.06;;;7.70;82.35
71948;BME280;63257;55.082;38.772;2023-10-19T07:57:58;98949.63;;;7.68;82.74
71948;BME280;63257;55.082;38.772;2023-10-19T08:00:30;98958.44;;;7.67;81.93
71948;BME280;63257;55.082;38.772;2023-10-19T08:02:56;98956.66;;;7.68;82.20
71948;BME280;63257;55.082;38.772;2023-10-19T08:05:22;98968.03;;;7.68;82.67
71948;BME280;63257;55.082;38.772;2023-10-19T08:07:48;98958.75;;;7.77;82.29
71948;BME280;63257;55.082;38.772;2023-10-19T08:10:16;98950.69;;;7.80;81.98
71948;BME280;63257;55.082;38.772;2023-10-19T08:12:43;98962.16;;;7.79;81.17
71948;BME280;63257;55.082;38.772;2023-10-19T08:15:11;98966.88;;;7.88;81.26
71948;BME280;63257;55.082;38.772;2023-10-19T08:17:38;98961.69;;;7.87;79.57
71948;BME280;63257;55.082;38.772;2023-10-19T08:20:09;98960.00;;;7.86;80.86
71948;BME280;63257;55.082;38.772;2023-10-19T08:22:43;98955.13;;;7.79;79.46
71948;BME280;63257;55.082;38.772;2023-10-19T08:25:09;98966.03;;;7.88;80.36
71948;BME280;63257;55.082;38.772;2023-10-19T08:27:46;98964.09;;;7.91;80.49
71948;BME280;63257;55.082;38.772;2023-10-19T08:30:20;98973.63;;;7.92;79.73
71948;BME280;63257;55.082;38.772;2023-10-19T08:32:47;98956.53;;;7.85;79.29
71948;BME280;63257;55.082;38.772;2023-10-19T08:35:19;98974.50;;;7.93;80.33
71948;BME280;63257;55.082;38.772;2023-10-19T08:37:53;98970.84;;;7.95;80.44
71948;BME280;63257;55.082;38.772;2023-10-19T08:40:20;98969.28;;;8.07;79.15
71948;BME280;63257;55.082;38.772;2023-10-19T08:42:47;98958.66;;;8.09;80.05
71948;BME280;63257;55.082;38.772;2023-10-19T08:45:15;98961.09;;;7.97;79.35
71948;BME280;63257;55.082;38.772;2023-10-19T08:48:02;98976.31;;;8.07;80.36
71948;BME280;63257;55.082;38.772;2023-10-19T08:50:31;98972.91;;;8.05;79.36
71948;BME280;63257;55.082;38.772;2023-10-19T08:52:59;98975.56;;;8.05;79.89
71948;BME280;63257;55.082;38.772;2023-10-19T08:55:26;98957.97;;;7.91;81.05
71948;BME280;63257;55.082;38.772;2023-10-19T08:57:53;98967.66;;;8.05;81.39
71948;BME280;63257;55.082;38.772;2023-10-19T09:00:19;98956.41;;;8.03;81.26
71948;BME280;63257;55.082;38.772;2023-10-19T09:02:46;98976.41;;;8.05;81.64
71948;BME280;63257;55.082;38.772;2023-10-19T09:05:13;98958.66;;;7.94;82.16
71948;BME280;63257;55.082;38.772;2023-10-19T09:07:49;98955.16;;;7.94;81.83
71948;BME280;63257;55.082;38.772;2023-10-19T09:10:25;98960.91;;;8.01;81.24
71948;BME280;63257;55.082;38.772;2023-10-19T09:13:04;98961.09;;;7.97;82.03
71948;BME280;63257;55.082;38.772;2023-10-19T09:15:36;98961.88;;;8.14;81.31
71948;BME280;63257;55.082;38.772;2023-10-19T09:18:19;98982.84;;;8.30;80.38
71948;BME280;63257;55.082;38.772;2023-10-19T09:20:47;98964.38;;;8.31;79.53
71948;BME280;63257;55.082;38.772;2023-10-19T09:23:24;98971.72;;;8.41;78.70
71948;BME280;63257;55.082;38.772;2023-10-19T09:25:56;98979.53;;;8.12;78.26
71948;BME280;63257;55.082;38.772;2023-10-19T09:28:22;98954.41;;;7.92;78.24
71948;BME280;63257;55.082;38.772;2023-10-19T09:30:50;98951.41;;;7.98;79.55
71948;BME280;63257;55.082;38.772;2023-10-19T09:33:16;98968.44;;;8.07;80.58
71948;BME280;63257;55.082;38.772;2023-10-19T09:35:47;98955.00;;;7.97;80.16
71948;BME280;63257;55.082;38.772;2023-10-19T09:38:15;98971.16;;;8.05;81.09
71948;BME280;63257;55.082;38.772;2023-10-19T09:40:41;98969.06;;;7.96;78.96
71948;BME280;63257;55.082;38.772;2023-10-19T09:43:19;98956.25;;;7.59;79.31
71948;BME280;63257;55.082;38.772;2023-10-19T09:45:49;98962.19;;;7.63;81.05
71948;BME280;63257;55.082;38.772;2023-10-19T09:48:18;98975.72;;;7.71;80.94
71948;BME280;63257;55.082;38.772;2023-10-19T09:50:53;98962.88;;;7.67;80.23
71948;BME280;63257;55.082;38.772;2023-10-19T09:53:27;98961.16;;;7.66;81.01
71948;BME280;63257;55.082;38.772;2023-10-19T09:55:57;98957.63;;;7.67;81.42
71948;BME280;63257;55.082;38.772;2023-10-19T09:58:40;98962.88;;;7.67;80.44
71948;BME280;63257;55.082;38.772;2023-10-19T10:01:08;98959.13;;;7.71;80.40
71948;BME280;63257;55.082;38.772;2023-10-19T10:03:46;98978.66;;;7.81;80.72
71948;BME280;63257;55.082;38.772;2023-10-19T10:06:14;98982.47;;;7.91;80.60
71948;BME280;63257;55.082;38.772;2023-10-19T10:08:44;98976.25;;;7.92;80.75
71948;BME280;63257;55.082;38.772;2023-10-19T10:11:16;98979.84;;;7.91;80.70
71948;BME280;63257;55.082;38.772;2023-10-19T10:13:43;98980.00;;;7.88;80.93
71948;BME280;63257;55.082;38.772;2023-10-19T10:16:13;98940.59;;;7.58;81.12
71948;BME280;63257;55.082;38.772;2023-10-19T10:18:41;98977.16;;;7.77;81.90
71948;BME280;63257;55.082;38.772;2023-10-19T10:23:41;98975.34;;;7.77;81.82
71948;BME280;63257;55.082;38.772;2023-10-19T10:26:12;98970.97;;;7.78;81.86
71948;BME280;63257;55.082;38.772;2023-10-19T10:28:46;98981.56;;;7.76;81.65
71948;BME280;63257;55.082;38.772;2023-10-19T10:31:18;98964.38;;;7.71;82.21
71948;BME280;63257;55.082;38.772;2023-10-19T10:33:47;98987.88;;;7.88;81.80
71948;BME280;63257;55.082;38.772;2023-10-19T10:36:14;98961.81;;;7.69;80.98
71948;BME280;63257;55.082;38.772;2023-10-19T10:38:43;98980.47;;;7.80;80.00
71948;BME280;63257;55.082;38.772;2023-10-19T10:41:09;98980.97;;;7.71;80.57
71948;BME280;63257;55.082;38.772;2023-10-19T10:43:49;98984.00;;;7.79;80.12
71948;BME280;63257;55.082;38.772;2023-10-19T10:46:25;98981.69;;;7.89;80.82
71948;BME280;63257;55.082;38.772;2023-10-19T10:48:53;98978.88;;;7.92;80.86
71948;BME280;63257;55.082;38.772;2023-10-19T10:51:23;98970.34;;;7.89;80.29
71948;BME280;63257;55.082;38.772;2023-10-19T10:53:53;98979.56;;;7.96;81.29
71948;BME280;63257;55.082;38.772;2023-10-19T10:56:21;98977.03;;;7.94;81.88
71948;BME280;63257;55.082;38.772;2023-10-19T10:58:47;98983.09;;;8.11;80.68
71948;BME280;63257;55.082;38.772;2023-10-19T11:01:14;98985.72;;;8.11;79.99
71948;BME280;63257;55.082;38.772;2023-10-19T11:03:41;98988.66;;;8.21;80.17
71948;BME280;63257;55.082;38.772;2023-10-19T11:06:10;98972.78;;;8.22;81.99
71948;BME280;63257;55.082;38.772;2023-10-19T11:08:37;98970.34;;;8.33;80.18
71948;BME280;63257;55.082;38.772;2023-10-19T11:11:08;98989.75;;;8.47;79.85
71948;BME280;63257;55.082;38.772;2023-10-19T11:13:38;98960.03;;;8.30;80.22
71948;BME280;63257;55.082;38.772;2023-10-19T11:16:06;98966.91;;;8.33;79.60
71948;BME280;63257;55.082;38.772;2023-10-19T11:21:06;98988.94;;;8.46;80.80
71948;BME280;63257;55.082;38.772;2023-10-19T11:23:46;98989.84;;;8.45;82.19
71948;BME280;63257;55.082;38.772;2023-10-19T11:26:16;98983.78;;;8.43;79.75
71948;BME280;63257;55.082;38.772;2023-10-19T11:28:42;98983.16;;;8.40;79.14
71948;BME280;63257;55.082;38.772;2023-10-19T11:33:45;98965.69;;;8.39;80.05
71948;BME280;63257;55.082;38.772;2023-10-19T11:36:12;98961.81;;;8.30;80.00
71948;BME280;63257;55.082;38.772;2023-10-19T11:38:40;98975.53;;;8.35;81.65
71948;BME280;63257;55.082;38.772;2023-10-19T11:41:06;98977.44;;;8.47;81.26
71948;BME280;63257;55.082;38.772;2023-10-19T11:43:34;98979.81;;;8.52;79.38
71948;BME280;63257;55.082;38.772;2023-10-19T11:46:00;98963.19;;;8.52;79.99
71948;BME280;63257;55.082;38.772;2023-10-19T11:48:26;98977.09;;;8.54;79.01
71948;BME280;63257;55.082;38.772;2023-10-19T11:50:52;98966.25;;;8.44;79.09
71948;BME280;63257;55.082;38.772;2023-10-19T11:53:19;98979.50;;;8.42;76.36
71948;BME280;63257;55.082;38.772;2023-10-19T11:55:45;98958.56;;;8.41;78.15
71948;BME280;63257;55.082;38.772;2023-10-19T11:58:14;98970.03;;;8.54;77.18
71948;BME280;63257;55.082;38.772;2023-10-19T12:00:41;98973.91;;;8.63;77.48
71948;BME280;63257;55.082;38.772;2023-10-19T12:03:09;98976.06;;;8.71;75.57
71948;BME280;63257;55.082;38.772;2023-10-19T12:05:39;98981.03;;;8.61;75.06
71948;BME280;63257;55.082;38.772;2023-10-19T12:08:05;98972.56;;;8.56;75.90
71948;BME280;63257;55.082;38.772;2023-10-19T12:10:32;98981.31;;;8.56;75.36
71948;BME280;63257;55.082;38.772;2023-10-19T12:13:04;98987.41;;;8.57;75.68
71948;BME280;63257;55.082;38.772;2023-10-19T12:15:34;98984.66;;;8.44;75.12
71948;BME280;63257;55.082;38.772;2023-10-19T12:18:00;98990.69;;;8.46;76.43
71948;BME280;63257;55.082;38.772;2023-10-19T12:20:29;98968.84;;;8.29;75.70
71948;BME280;63257;55.082;38.772;2023-10-19T12:22:57;98999.47;;;8.30;76.83
71948;BME280;63257;55.082;38.772;2023-10-19T12:25:25;98988.13;;;8.30;77.75
71948;BME280;63257;55.082;38.772;2023-10-19T12:27:58;98995.13;;;8.29;77.23
71948;BME280;63257;55.082;38.772;2023-10-19T12:30:25;98988.13;;;8.30;77.42
71948;BME280;63257;55.082;38.772;2023-10-19T12:33:01;98979.25;;;8.17;76.36
71948;BME280;63257;55.082;38.772;2023-10-19T12:35:27;98989.50;;;8.21;76.44
71948;BME280;63257;55.082;38.772;2023-10-19T12:38:15;98989.56;;;8.20;76.59
71948;BME280;63257;55.082;38.772;2023-10-19T12:40:46;98989.50;;;8.21;77.43
71948;BME280;63257;55.082;38.772;2023-10-19T12:43:13;98985.19;;;8.20;77.26
71948;BME280;63257;55.082;38.772;2023-10-19T12:45:40;98994.00;;;8.19;78.38
71948;BME280;63257;55.082;38.772;2023-10-19T12:48:06;98971.91;;;8.07;78.74
71948;BME280;63257;55.082;38.772;2023-10-19T12:50:35;98982.50;;;8.06;79.67
71948;BME280;63257;55.082;38.772;2023-10-19T12:53:02;98972.53;;;7.96;79.08
71948;BME280;63257;55.082;38.772;2023-10-19T12:55:29;98989.81;;;8.01;80.53
71948;BME280;63257;55.082;38.772;2023-10-19T12:57:57;98976.75;;;7.99;80.79
71948;BME280;63257;55.082;38.772;2023-10-19T13:00:23;98988.59;;;8.06;81.29
71948;BME280;63257;55.082;38.772;2023-10-19T13:02:50;98985.16;;;7.90;79.70
71948;BME280;63257;55.082;38.772;2023-10-19T13:05:16;98987.63;;;7.93;80.24
71948;BME280;63257;55.082;38.772;2023-10-19T13:07:44;98971.28;;;7.88;81.21
71948;BME280;63257;55.082;38.772;2023-10-19T13:10:10;98987.72;;;7.91;83.10
71948;BME280;63257;55.082;38.772;2023-10-19T13:12:39;98972.41;;;7.84;83.35
71948;BME280;63257;55.082;38.772;2023-10-19T13:15:06;98985.00;;;7.93;83.96
71948;BME280;63257;55.082;38.772;2023-10-19T13:17:41;98993.72;;;7.93;83.60
71948;BME280;63257;55.082;38.772;2023-10-19T13:20:09;98984.59;;;7.85;83.78
71948;BME280;63257;55.082;38.772;2023-10-19T13:22:43;98984.34;;;7.89;82.95